sensor_id;sensor_type;location;lat;lon;timestamp;pressure;altitude;pressure_sealevel;temperature;humidity
71970;BME280;59838;52.152;5.436;2023-02-01T00:00:15;102081.53;;;3.24;94.67
71970;BME280;59838;52.152;5.436;2023-02-01T00:02:42;102070.16;;;3.28;94.81
71970;BME280;59838;52.152;5.436;2023-02-01T00:05:09;102065.31;;;3.36;94.55
71970;BME280;59838;52.152;5.436;2023-02-01T00:07:37;102059.75;;;3.42;94.44
71970;BME280;59838;52.152;5.436;2023-02-01T00:10:04;102054.91;;;3.51;94.46
71970;BME280;59838;52.152;5.436;2023-02-01T00:12:31;102063.72;;;3.59;94.18
71970;BME280;59838;52.152;5.436;2023-02-01T00:14:58;102071.00;;;3.65;94.02
71970;BME280;59838;52.152;5.436;2023-02-01T00:17:24;102076.81;;;3.80;93.73
71970;BME280;59838;52.152;5.436;2023-02-01T00:19:51;102062.03;;;3.84;93.07
71970;BME280;59838;52.152;5.436;2023-02-01T00:22:17;102054.72;;;3.91;93.10
71970;BME280;59838;52.152;5.436;2023-02-01T00:24:44;102061.47;;;3.92;92.85
71970;BME280;59838;52.152;5.436;2023-02-01T00:27:10;102055.31;;;3.94;92.76
71970;BME280;59838;52.152;5.436;2023-02-01T00:29:37;102054.28;;;3.97;92.71
71970;BME280;59838;52.152;5.436;2023-02-01T00:32:03;102052.41;;;3.99;92.60
71970;BME280;59838;52.152;5.436;2023-02-01T00:34:30;102057.22;;;4.03;92.73
71970;BME280;59838;52.152;5.436;2023-02-01T00:36:56;102052.56;;;4.09;92.74
71970;BME280;59838;52.152;5.436;2023-02-01T00:39:23;102051.53;;;4.11;92.76
71970;BME280;59838;52.152;5.436;2023-02-01T00:41:49;102050.50;;;4.14;92.48
71970;BME280;59838;52.152;5.436;2023-02-01T00:44:16;102053.16;;;4.12;92.47
71970;BME280;59838;52.152;5.436;2023-02-01T00:46:43;102055.19;;;4.20;91.99
71970;BME280;59838;52.152;5.436;2023-02-01T00:49:09;102055.34;;;4.30;91.66
71970;BME280;59838;52.152;5.436;2023-02-01T00:51:36;102057.59;;;4.34;91.43
71970;BME280;59838;52.152;5.436;2023-02-01T00:54:02;102058.41;;;4.35;91.30
71970;BME280;59838;52.152;5.436;2023-02-01T00:56:29;102051.84;;;4.31;90.99
71970;BME280;59838;52.152;5.436;2023-02-01T00:58:56;102048.56;;;4.29;90.95
71970;BME280;59838;52.152;5.436;2023-02-01T01:01:25;102051.63;;;4.34;91.07
71970;BME280;59838;52.152;5.436;2023-02-01T01:03:55;102057.38;;;4.37;91.23
71970;BME280;59838;52.152;5.436;2023-02-01T01:06:32;102050.50;;;4.49;90.80
71970;BME280;59838;52.152;5.436;2023-02-01T01:09:01;102058.47;;;4.57;90.84
71970;BME280;59838;52.152;5.436;2023-02-01T01:11:30;102036.38;;;4.66;90.16
71970;BME280;59838;52.152;5.436;2023-02-01T01:13:57;102032.53;;;4.72;89.67
71970;BME280;59838;52.152;5.436;2023-02-01T01:16:25;102035.00;;;4.73;89.66
71970;BME280;59838;52.152;5.436;2023-02-01T01:18:52;102027.66;;;4.80;89.12
71970;BME280;59838;52.152;5.436;2023-02-01T01:21:19;102025.66;;;4.84;88.57
71970;BME280;59838;52.152;5.436;2023-02-01T01:23:46;102041.00;;;4.85;88.35
71970;BME280;59838;52.152;5.436;2023-02-01T01:26:16;102038.41;;;4.85;88.17
71970;BME280;59838;52.152;5.436;2023-02-01T01:28:44;102032.56;;;4.94;87.69
71970;BME280;59838;52.152;5.436;2023-02-01T01:31:12;102030.81;;;4.95;87.76
71970;BME280;59838;52.152;5.436;2023-02-01T01:33:39;102033.16;;;4.98;87.48
71970;BME280;59838;52.152;5.436;2023-02-01T01:36:07;102027.56;;;5.04;87.06
71970;BME280;59838;52.152;5.436;2023-02-01T01:38:38;102020.75;;;5.03;86.78
71970;BME280;59838;52.152;5.436;2023-02-01T01:41:04;102018.63;;;5.08;86.66
71970;BME280;59838;52.152;5.436;2023-02-01T01:46:22;102018.28;;;5.13;86.04
71970;BME280;59838;52.152;5.436;2023-02-01T01:48:53;102025.91;;;5.15;86.07
71970;BME280;59838;52.152;5.436;2023-02-01T01:51:24;102024.88;;;5.17;86.10
71970;BME280;59838;52.152;5.436;2023-02-01T01:54:12;102020.41;;;5.19;85.93
71970;BME280;59838;52.152;5.436;2023-02-01T01:56:43;102013.59;;;5.18;85.61
71970;BME280;59838;52.152;5.436;2023-02-01T01:59:10;102010.66;;;5.23;85.75
71970;BME280;59838;52.152;5.436;2023-02-01T02:01:37;102009.28;;;5.30;85.66
71970;BME280;59838;52.152;5.436;2023-02-01T02:04:04;102004.69;;;5.34;85.58
71970;BME280;59838;52.152;5.436;2023-02-01T02:06:45;102005.41;;;5.36;85.54
71970;BME280;59838;52.152;5.436;2023-02-01T02:09:14;101995.09;;;5.36;85.72
71970;BME280;59838;52.152;5.436;2023-02-01T02:11:41;101996.25;;;5.43;85.11
71970;BME280;59838;52.152;5.436;2023-02-01T02:14:10;102002.69;;;5.48;85.25
71970;BME280;59838;52.152;5.436;2023-02-01T02:16:46;101989.09;;;5.46;85.24
71970;BME280;59838;52.152;5.436;2023-02-01T02:25:29;101987.06;;;5.61;84.79
71970;BME280;59838;52.152;5.436;2023-02-01T02:33:56;101976.03;;;5.71;84.91
71970;BME280;59838;52.152;5.436;2023-02-01T02:36:38;101972.25;;;5.75;85.03
71970;BME280;59838;52.152;5.436;2023-02-01T02:45:18;101964.47;;;5.86;85.05
71970;BME280;59838;52.152;5.436;2023-02-01T02:48:31;101967.91;;;5.86;84.60
71970;BME280;59838;52.152;5.436;2023-02-01T02:53:56;101955.81;;;5.87;84.50
71970;BME280;59838;52.152;5.436;2023-02-01T02:56:42;101953.00;;;5.90;84.68
71970;BME280;59838;52.152;5.436;2023-02-01T02:59:28;101934.94;;;5.90;84.65
71970;BME280;59838;52.152;5.436;2023-02-01T03:02:15;101915.34;;;5.88;85.17
71970;BME280;59838;52.152;5.436;2023-02-01T03:05:01;101928.50;;;5.84;85.38
71970;BME280;59838;52.152;5.436;2023-02-01T03:10:30;101928.19;;;5.78;85.01
71970;BME280;59838;52.152;5.436;2023-02-01T03:13:05;101933.94;;;5.70;85.09
71970;BME280;59838;52.152;5.436;2023-02-01T03:15:36;101942.53;;;5.71;84.82
71970;BME280;59838;52.152;5.436;2023-02-01T03:18:12;101931.13;;;5.73;84.60
71970;BME280;59838;52.152;5.436;2023-02-01T03:20:43;101936.16;;;5.75;84.31
71970;BME280;59838;52.152;5.436;2023-02-01T03:23:11;101936.53;;;5.70;84.17
71970;BME280;59838;52.152;5.436;2023-02-01T03:25:41;101919.81;;;5.64;84.59
71970;BME280;59838;52.152;5.436;2023-02-01T03:28:09;101928.03;;;5.58;84.50
71970;BME280;59838;52.152;5.436;2023-02-01T03:30:42;101929.22;;;5.54;84.68
71970;BME280;59838;52.152;5.436;2023-02-01T03:33:13;101927.00;;;5.49;84.84
71970;BME280;59838;52.152;5.436;2023-02-01T03:35:54;101931.31;;;5.49;84.75
71970;BME280;59838;52.152;5.436;2023-02-01T03:41:02;101948.88;;;5.55;84.35
71970;BME280;59838;52.152;5.436;2023-02-01T03:43:33;101943.50;;;5.58;84.25
71970;BME280;59838;52.152;5.436;2023-02-01T03:46:07;101946.19;;;5.57;84.19
71970;BME280;59838;52.152;5.436;2023-02-01T03:48:36;101935.19;;;5.55;84.77
71970;BME280;59838;52.152;5.436;2023-02-01T03:51:04;101929.94;;;5.45;84.80
71970;BME280;59838;52.152;5.436;2023-02-01T03:53:35;101939.56;;;5.43;84.97
71970;BME280;59838;52.152;5.436;2023-02-01T03:56:02;101952.69;;;5.40;85.04
71970;BME280;59838;52.152;5.436;2023-02-01T03:58:29;101948.09;;;5.43;85.21
71970;BME280;59838;52.152;5.436;2023-02-01T04:00:58;101942.50;;;5.38;85.48
71970;BME280;59838;52.152;5.436;2023-02-01T04:03:26;101934.19;;;5.35;85.26
71970;BME280;59838;52.152;5.436;2023-02-01T04:05:53;101942.84;;;5.45;85.48
71970;BME280;59838;52.152;5.436;2023-02-01T04:08:20;101939.31;;;5.46;85.63
71970;BME280;59838;52.152;5.436;2023-02-01T04:10:48;101930.50;;;5.48;85.32
71970;BME280;59838;52.152;5.436;2023-02-01T04:13:15;101932.38;;;5.58;84.91
71970;BME280;59838;52.152;5.436;2023-02-01T04:15:41;101940.44;;;5.64;84.68
71970;BME280;59838;52.152;5.436;2023-02-01T04:18:08;101933.50;;;5.65;84.54
71970;BME280;59838;52.152;5.436;2023-02-01T04:20:34;101935.72;;;5.70;84.58
71970;BME280;59838;52.152;5.436;2023-02-01T04:23:00;101951.75;;;5.73;84.62
71970;BME280;59838;52.152;5.436;2023-02-01T04:25:29;101958.44;;;5.76;84.14
71970;BME280;59838;52.152;5.436;2023-02-01T04:27:55;101958.19;;;5.79;84.06
71970;BME280;59838;52.152;5.436;2023-02-01T04:30:22;101960.78;;;5.79;83.75
71970;BME280;59838;52.152;5.436;2023-02-01T04:32:50;101950.34;;;5.80;83.67
71970;BME280;59838;52.152;5.436;2023-02-01T04:35:16;101933.66;;;5.84;83.25
71970;BME280;59838;52.152;5.436;2023-02-01T04:37:44;101931.78;;;5.86;83.10
71970;BME280;59838;52.152;5.436;2023-02-01T04:40:10;101936.34;;;5.83;83.67
71970;BME280;59838;52.152;5.436;2023-02-01T04:42:37;101932.84;;;5.84;83.11
71970;BME280;59838;52.152;5.436;2023-02-01T04:45:04;101933.09;;;5.81;83.44
71970;BME280;59838;52.152;5.436;2023-02-01T04:47:31;101942.03;;;5.77;83.48
71970;BME280;59838;52.152;5.436;2023-02-01T04:49:57;101934.53;;;5.74;84.00
71970;BME280;59838;52.152;5.436;2023-02-01T04:52:24;101917.31;;;5.74;84.00
71970;BME280;59838;52.152;5.436;2023-02-01T04:54:50;101933.25;;;5.68;84.05
71970;BME280;59838;52.152;5.436;2023-02-01T04:57:16;101934.47;;;5.64;84.21
71970;BME280;59838;52.152;5.436;2023-02-01T04:59:43;101931.28;;;5.60;84.49
71970;BME280;59838;52.152;5.436;2023-02-01T05:02:09;101929.34;;;5.53;84.87
71970;BME280;59838;52.152;5.436;2023-02-01T05:04:36;101939.91;;;5.49;84.97
71970;BME280;59838;52.152;5.436;2023-02-01T05:07:02;101930.16;;;5.53;85.10
71970;BME280;59838;52.152;5.436;2023-02-01T05:09:29;101920.41;;;5.57;85.35
71970;BME280;59838;52.152;5.436;2023-02-01T05:11:55;101938.22;;;5.60;85.53
71970;BME280;59838;52.152;5.436;2023-02-01T05:14:40;101935.75;;;5.58;85.67
71970;BME280;59838;52.152;5.436;2023-02-01T05:17:07;101923.66;;;5.59;85.33
71970;BME280;59838;52.152;5.436;2023-02-01T05:19:33;101922.28;;;5.55;85.00
71970;BME280;59838;52.152;5.436;2023-02-01T05:21:59;101928.72;;;5.60;85.00
71970;BME280;59838;52.152;5.436;2023-02-01T05:24:26;101922.63;;;5.61;85.24
71970;BME280;59838;52.152;5.436;2023-02-01T05:26:53;101924.63;;;5.58;85.28
71970;BME280;59838;52.152;5.436;2023-02-01T05:29:19;101933.06;;;5.60;85.42
71970;BME280;59838;52.152;5.436;2023-02-01T05:31:46;101937.97;;;5.63;85.32
71970;BME280;59838;52.152;5.436;2023-02-01T05:34:14;101943.00;;;5.64;85.44
71970;BME280;59838;52.152;5.436;2023-02-01T05:36:41;101928.34;;;5.65;85.44
71970;BME280;59838;52.152;5.436;2023-02-01T05:39:07;101936.69;;;5.68;85.14
71970;BME280;59838;52.152;5.436;2023-02-01T05:41:34;101936.16;;;5.75;84.92
71970;BME280;59838;52.152;5.436;2023-02-01T05:44:00;101948.00;;;5.77;84.96
71970;BME280;59838;52.152;5.436;2023-02-01T05:46:27;101942.97;;;5.76;85.16
71970;BME280;59838;52.152;5.436;2023-02-01T05:48:53;101952.59;;;5.74;84.92
71970;BME280;59838;52.152;5.436;2023-02-01T05:51:20;101953.28;;;5.76;85.15
71970;BME280;59838;52.152;5.436;2023-02-01T05:53:46;101942.84;;;5.77;85.24
71970;BME280;59838;52.152;5.436;2023-02-01T05:56:12;101951.16;;;5.81;84.93
71970;BME280;59838;52.152;5.436;2023-02-01T05:58:39;101955.13;;;5.85;84.88
71970;BME280;59838;52.152;5.436;2023-02-01T06:01:05;101952.31;;;5.88;84.31
71970;BME280;59838;52.152;5.436;2023-02-01T06:03:32;101953.91;;;5.89;84.30
71970;BME280;59838;52.152;5.436;2023-02-01T06:05:58;101943.59;;;5.89;84.60
71970;BME280;59838;52.152;5.436;2023-02-01T06:08:26;101947.16;;;5.88;84.65
71970;BME280;59838;52.152;5.436;2023-02-01T06:11:04;101954.75;;;5.90;84.60
71970;BME280;59838;52.152;5.436;2023-02-01T06:13:32;101945.38;;;5.89;84.78
71970;BME280;59838;52.152;5.436;2023-02-01T06:16:01;101950.41;;;5.90;85.04
71970;BME280;59838;52.152;5.436;2023-02-01T06:18:27;101941.47;;;5.94;84.75
71970;BME280;59838;52.152;5.436;2023-02-01T06:20:55;101946.63;;;5.94;85.18
71970;BME280;59838;52.152;5.436;2023-02-01T06:23:22;101947.81;;;5.90;85.17
71970;BME280;59838;52.152;5.436;2023-02-01T06:25:58;101948.63;;;5.91;84.87
71970;BME280;59838;52.152;5.436;2023-02-01T06:28:26;101947.16;;;5.88;85.29
71970;BME280;59838;52.152;5.436;2023-02-01T06:30:52;101958.38;;;5.87;85.68
71970;BME280;59838;52.152;5.436;2023-02-01T06:33:19;101953.47;;;5.84;85.49
71970;BME280;59838;52.152;5.436;2023-02-01T06:35:45;101960.88;;;5.77;85.40
71970;BME280;59838;52.152;5.436;2023-02-01T06:38:13;101957.31;;;5.68;86.10
71970;BME280;59838;52.152;5.436;2023-02-01T06:40:40;101961.41;;;5.60;86.38
71970;BME280;59838;52.152;5.436;2023-02-01T06:43:08;101971.16;;;5.56;86.22
71970;BME280;59838;52.152;5.436;2023-02-01T06:45:34;101973.84;;;5.55;86.12
71970;BME280;59838;52.152;5.436;2023-02-01T06:48:01;101969.97;;;5.49;86.49
71970;BME280;59838;52.152;5.436;2023-02-01T06:50:27;101972.00;;;5.45;86.96
71970;BME280;59838;52.152;5.436;2023-02-01T06:52:54;101979.03;;;5.43;86.90
71970;BME280;59838;52.152;5.436;2023-02-01T06:55:21;101971.06;;;5.46;86.73
71970;BME280;59838;52.152;5.436;2023-02-01T06:57:47;101965.34;;;5.43;86.86
71970;BME280;59838;52.152;5.436;2023-02-01T07:00:14;101958.53;;;5.42;86.94
71970;BME280;59838;52.152;5.436;2023-02-01T07:02:40;101964.38;;;5.44;86.83
71970;BME280;59838;52.152;5.436;2023-02-01T07:05:07;101956.06;;;5.40;87.00
71970;BME280;59838;52.152;5.436;2023-02-01T07:07:34;101953.63;;;5.39;87.05
71970;BME280;59838;52.152;5.436;2023-02-01T07:10:00;101948.34;;;5.40;86.89
71970;BME280;59838;52.152;5.436;2023-02-01T07:12:27;101964.38;;;5.44;86.87
71970;BME280;59838;52.152;5.436;2023-02-01T07:14:53;101961.91;;;5.42;87.44
71970;BME280;59838;52.152;5.436;2023-02-01T07:17:19;101967.91;;;5.43;87.37
71970;BME280;59838;52.152;5.436;2023-02-01T07:19:46;101954.91;;;5.44;87.15
71970;BME280;59838;52.152;5.436;2023-02-01T07:22:12;101963.34;;;5.46;87.40
71970;BME280;59838;52.152;5.436;2023-02-01T07:24:39;101971.19;;;5.45;87.64
71970;BME280;59838;52.152;5.436;2023-02-01T07:27:05;101972.72;;;5.47;87.45
71970;BME280;59838;52.152;5.436;2023-02-01T07:29:32;101959.09;;;5.45;87.65
71970;BME280;59838;52.152;5.436;2023-02-01T07:31:58;101953.94;;;5.45;87.69
71970;BME280;59838;52.152;5.436;2023-02-01T07:34:25;101961.44;;;5.48;87.41
71970;BME280;59838;52.152;5.436;2023-02-01T07:36:51;101975.41;;;5.46;87.68
71970;BME280;59838;52.152;5.436;2023-02-01T07:39:17;101979.47;;;5.48;87.78
71970;BME280;59838;52.152;5.436;2023-02-01T07:41:45;101965.78;;;5.48;87.65
71970;BME280;59838;52.152;5.436;2023-02-01T07:44:12;101961.19;;;5.52;87.31
71970;BME280;59838;52.152;5.436;2023-02-01T07:46:38;101971.63;;;5.50;87.33
71970;BME280;59838;52.152;5.436;2023-02-01T07:49:05;101954.16;;;5.54;86.83
71970;BME280;59838;52.152;5.436;2023-02-01T07:51:32;101960.28;;;5.53;86.92
71970;BME280;59838;52.152;5.436;2023-02-01T07:53:59;101964.09;;;5.58;86.79
71970;BME280;59838;52.152;5.436;2023-02-01T07:56:25;101975.09;;;5.60;86.77
71970;BME280;59838;52.152;5.436;2023-02-01T07:58:53;101958.03;;;5.59;86.57
71970;BME280;59838;52.152;5.436;2023-02-01T08:01:24;101979.47;;;5.60;86.47
71970;BME280;59838;52.152;5.436;2023-02-01T08:03:53;101983.56;;;5.62;86.39
71970;BME280;59838;52.152;5.436;2023-02-01T08:06:21;101975.72;;;5.64;86.42
71970;BME280;59838;52.152;5.436;2023-02-01T08:08:49;101988.00;;;5.60;86.95
71970;BME280;59838;52.152;5.436;2023-02-01T08:11:16;101987.75;;;5.63;86.87
71970;BME280;59838;52.152;5.436;2023-02-01T08:13:43;101980.25;;;5.60;86.81
71970;BME280;59838;52.152;5.436;2023-02-01T08:16:11;101982.72;;;5.62;86.69
71970;BME280;59838;52.152;5.436;2023-02-01T08:18:39;101973.00;;;5.65;86.59
71970;BME280;59838;52.152;5.436;2023-02-01T08:21:08;101990.53;;;5.72;86.71
71970;BME280;59838;52.152;5.436;2023-02-01T08:23:36;101976.38;;;5.77;86.92
71970;BME280;59838;52.152;5.436;2023-02-01T08:26:16;101971.97;;;5.89;86.72
71970;BME280;59838;52.152;5.436;2023-02-01T08:28:47;101968.06;;;6.06;86.20
71970;BME280;59838;52.152;5.436;2023-02-01T08:31:16;101963.22;;;6.13;85.86
71970;BME280;59838;52.152;5.436;2023-02-01T08:33:48;101960.41;;;6.16;85.72
71970;BME280;59838;52.152;5.436;2023-02-01T08:36:15;101961.78;;;6.20;85.74
71970;BME280;59838;52.152;5.436;2023-02-01T08:38:41;101965.44;;;6.17;85.56
71970;BME280;59838;52.152;5.436;2023-02-01T08:41:11;101965.81;;;6.13;85.43
71970;BME280;59838;52.152;5.436;2023-02-01T08:43:38;101959.13;;;6.10;85.51
71970;BME280;59838;52.152;5.436;2023-02-01T08:46:05;101951.38;;;6.10;85.67
71970;BME280;59838;52.152;5.436;2023-02-01T08:48:32;101947.75;;;6.13;85.40
71970;BME280;59838;52.152;5.436;2023-02-01T08:51:03;101958.63;;;6.16;85.42
71970;BME280;59838;52.152;5.436;2023-02-01T08:53:30;101949.31;;;6.25;85.23
71970;BME280;59838;52.152;5.436;2023-02-01T08:55:57;101956.19;;;6.36;84.98
71970;BME280;59838;52.152;5.436;2023-02-01T08:58:23;101945.72;;;6.37;84.78
71970;BME280;59838;52.152;5.436;2023-02-01T09:00:50;101953.22;;;6.40;84.27
71970;BME280;59838;52.152;5.436;2023-02-01T09:03:17;101955.66;;;6.42;84.20
71970;BME280;59838;52.152;5.436;2023-02-01T09:05:44;101943.44;;;6.44;84.57
71970;BME280;59838;52.152;5.436;2023-02-01T09:08:15;101944.00;;;6.48;84.55
71970;BME280;59838;52.152;5.436;2023-02-01T09:10:42;101947.09;;;6.63;84.38
71970;BME280;59838;52.152;5.436;2023-02-01T09:13:09;101941.88;;;6.84;83.89
71970;BME280;59838;52.152;5.436;2023-02-01T09:15:37;101948.72;;;7.04;83.10
71970;BME280;59838;52.152;5.436;2023-02-01T09:18:03;101954.06;;;7.22;82.78
71970;BME280;59838;52.152;5.436;2023-02-01T09:20:30;101946.31;;;7.22;81.85
71970;BME280;59838;52.152;5.436;2023-02-01T09:22:56;101941.47;;;7.29;81.91
71970;BME280;59838;52.152;5.436;2023-02-01T09:25:23;101939.69;;;7.29;82.00
71970;BME280;59838;52.152;5.436;2023-02-01T09:27:50;101934.63;;;7.28;82.11
71970;BME280;59838;52.152;5.436;2023-02-01T09:30:16;101936.94;;;7.21;81.11
71970;BME280;59838;52.152;5.436;2023-02-01T09:32:43;101950.25;;;7.17;81.64
71970;BME280;59838;52.152;5.436;2023-02-01T09:35:09;101952.31;;;7.13;81.66
71970;BME280;59838;52.152;5.436;2023-02-01T09:37:36;101956.09;;;7.09;81.76
71970;BME280;59838;52.152;5.436;2023-02-01T09:40:04;101959.91;;;7.05;81.72
71970;BME280;59838;52.152;5.436;2023-02-01T09:45:51;101936.06;;;7.01;81.40
71970;BME280;59838;52.152;5.436;2023-02-01T09:48:29;101938.38;;;7.04;82.00
71970;BME280;59838;52.152;5.436;2023-02-01T09:50:59;101945.47;;;7.02;81.60
71970;BME280;59838;52.152;5.436;2023-02-01T09:53:33;101934.31;;;7.02;81.66
71970;BME280;59838;52.152;5.436;2023-02-01T09:56:12;101946.69;;;6.98;81.67
71970;BME280;59838;52.152;5.436;2023-02-01T10:01:16;101937.81;;;6.91;82.23
71970;BME280;59838;52.152;5.436;2023-02-01T10:03:45;101937.94;;;6.89;82.16
71970;BME280;59838;52.152;5.436;2023-02-01T10:15:02;101926.50;;;6.82;83.94
71970;BME280;59838;52.152;5.436;2023-02-01T10:20:30;101930.00;;;6.71;85.44
71970;BME280;59838;52.152;5.436;2023-02-01T10:28:32;101951.06;;;6.46;88.55
71970;BME280;59838;52.152;5.436;2023-02-01T10:31:03;101950.88;;;6.37;89.38
71970;BME280;59838;52.152;5.436;2023-02-01T10:33:44;101944.47;;;6.32;89.11
71970;BME280;59838;52.152;5.436;2023-02-01T10:36:35;101953.16;;;6.31;89.04
71970;BME280;59838;52.152;5.436;2023-02-01T10:39:03;101937.56;;;6.32;89.81
71970;BME280;59838;52.152;5.436;2023-02-01T10:41:35;101940.94;;;6.33;89.45
71970;BME280;59838;52.152;5.436;2023-02-01T10:44:09;101929.56;;;6.35;89.27
71970;BME280;59838;52.152;5.436;2023-02-01T10:46:38;101922.38;;;6.39;89.05
71970;BME280;59838;52.152;5.436;2023-02-01T10:49:08;101928.09;;;6.43;89.51
71970;BME280;59838;52.152;5.436;2023-02-01T10:51:51;101924.31;;;6.47;89.03
71970;BME280;59838;52.152;5.436;2023-02-01T10:54:21;101901.75;;;6.49;86.96
71970;BME280;59838;52.152;5.436;2023-02-01T10:56:49;101908.03;;;6.56;86.80
71970;BME280;59838;52.152;5.436;2023-02-01T10:59:23;101907.94;;;6.67;86.48
71970;BME280;59838;52.152;5.436;2023-02-01T11:01:59;101914.53;;;6.81;86.56
71970;BME280;59838;52.152;5.436;2023-02-01T11:04:28;101905.88;;;6.92;85.28
71970;BME280;59838;52.152;5.436;2023-02-01T11:07:24;101901.41;;;7.04;85.08
71970;BME280;59838;52.152;5.436;2023-02-01T11:09:53;101887.69;;;7.03;84.16
71970;BME280;59838;52.152;5.436;2023-02-01T11:12:28;101901.00;;;6.99;84.98
71970;BME280;59838;52.152;5.436;2023-02-01T11:15:12;101898.13;;;6.92;85.72
71970;BME280;59838;52.152;5.436;2023-02-01T11:17:43;101897.53;;;6.88;85.97
71970;BME280;59838;52.152;5.436;2023-02-01T11:20:18;101895.94;;;6.87;86.92
71970;BME280;59838;52.152;5.436;2023-02-01T11:23:04;101889.25;;;6.85;87.03
71970;BME280;59838;52.152;5.436;2023-02-01T11:25:32;101894.41;;;6.85;85.94
71970;BME280;59838;52.152;5.436;2023-02-01T11:28:02;101892.25;;;6.90;85.81
71970;BME280;59838;52.152;5.436;2023-02-01T11:30:37;101912.38;;;6.96;86.21
71970;BME280;59838;52.152;5.436;2023-02-01T11:33:10;101906.03;;;7.00;85.46
71970;BME280;59838;52.152;5.436;2023-02-01T11:35:39;101905.75;;;7.03;85.62
71970;BME280;59838;52.152;5.436;2023-02-01T11:38:23;101901.00;;;7.08;85.40
71970;BME280;59838;52.152;5.436;2023-02-01T11:40:52;101895.06;;;7.18;84.66
71970;BME280;59838;52.152;5.436;2023-02-01T11:43:27;101900.50;;;7.34;84.44
71970;BME280;59838;52.152;5.436;2023-02-01T11:45:59;101884.88;;;7.36;83.35
71970;BME280;59838;52.152;5.436;2023-02-01T11:48:31;101894.09;;;7.38;83.49
71970;BME280;59838;52.152;5.436;2023-02-01T11:56:36;101889.78;;;7.48;82.51
71970;BME280;59838;52.152;5.436;2023-02-01T11:59:12;101899.41;;;7.46;82.52
71970;BME280;59838;52.152;5.436;2023-02-01T12:07:23;101882.53;;;7.52;82.57
71970;BME280;59838;52.152;5.436;2023-02-01T12:10:25;101886.22;;;7.59;81.98
71970;BME280;59838;52.152;5.436;2023-02-01T12:21:17;101867.94;;;7.80;80.36
71970;BME280;59838;52.152;5.436;2023-02-01T12:37:55;101877.09;;;7.65;80.95
71970;BME280;59838;52.152;5.436;2023-02-01T12:40:41;101882.28;;;7.65;80.73
71970;BME280;59838;52.152;5.436;2023-02-01T12:43:17;101885.53;;;7.67;81.24
71970;BME280;59838;52.152;5.436;2023-02-01T12:45:52;101886.47;;;7.66;80.92
71970;BME280;59838;52.152;5.436;2023-02-01T12:48:38;101894.22;;;7.66;81.03
71970;BME280;59838;52.152;5.436;2023-02-01T12:51:16;101882.28;;;7.65;80.71
71970;BME280;59838;52.152;5.436;2023-02-01T12:56:26;101877.66;;;7.59;81.33
71970;BME280;59838;52.152;5.436;2023-02-01T12:58:59;101874.38;;;7.57;80.99
71970;BME280;59838;52.152;5.436;2023-02-01T13:01:35;101868.25;;;7.58;81.08
71970;BME280;59838;52.152;5.436;2023-02-01T13:04:14;101874.25;;;7.58;81.07
71970;BME280;59838;52.152;5.436;2023-02-01T13:06:50;101873.28;;;7.59;80.99
71970;BME280;59838;52.152;5.436;2023-02-01T13:12:43;101878.31;;;7.61;81.43
71970;BME280;59838;52.152;5.436;2023-02-01T13:15:16;101868.94;;;7.60;81.27
71970;BME280;59838;52.152;5.436;2023-02-01T13:17:44;101879.56;;;7.57;81.44
71970;BME280;59838;52.152;5.436;2023-02-01T13:20:35;101889.06;;;7.56;81.31
71970;BME280;59838;52.152;5.436;2023-02-01T13:23:13;101897.78;;;7.55;81.80
71970;BME280;59838;52.152;5.436;2023-02-01T13:25:47;101888.53;;;7.53;80.98
71970;BME280;59838;52.152;5.436;2023-02-01T13:28:19;101890.97;;;7.54;81.56
71970;BME280;59838;52.152;5.436;2023-02-01T13:40:29;101893.28;;;7.57;81.41
71970;BME280;59838;52.152;5.436;2023-02-01T13:43:01;101881.16;;;7.58;81.65
71970;BME280;59838;52.152;5.436;2023-02-01T13:45:34;101887.84;;;7.60;81.57
71970;BME280;59838;52.152;5.436;2023-02-01T13:48:04;101881.44;;;7.64;81.43
71970;BME280;59838;52.152;5.436;2023-02-01T13:50:37;101887.97;;;7.68;81.28
71970;BME280;59838;52.152;5.436;2023-02-01T13:53:18;101893.69;;;7.72;81.02
71970;BME280;59838;52.152;5.436;2023-02-01T13:56:14;101893.28;;;7.77;81.15
71970;BME280;59838;52.152;5.436;2023-02-01T13:58:42;101869.59;;;7.81;80.90
71970;BME280;59838;52.152;5.436;2023-02-01T14:04:04;101871.34;;;7.91;80.40
71970;BME280;59838;52.152;5.436;2023-02-01T14:11:48;101889.03;;;7.85;81.06
71970;BME280;59838;52.152;5.436;2023-02-01T14:21:55;101887.84;;;7.80;81.66
71970;BME280;59838;52.152;5.436;2023-02-01T14:24:28;101887.03;;;7.79;82.06
71970;BME280;59838;52.152;5.436;2023-02-01T14:26:57;101894.22;;;7.76;82.10
71970;BME280;59838;52.152;5.436;2023-02-01T14:29:36;101885.78;;;7.74;82.29
71970;BME280;59838;52.152;5.436;2023-02-01T14:39:46;101887.31;;;7.76;82.57
71970;BME280;59838;52.152;5.436;2023-02-01T14:42:37;101870.41;;;7.72;82.48
71970;BME280;59838;52.152;5.436;2023-02-01T14:47:49;101892.75;;;7.73;82.92
71970;BME280;59838;52.152;5.436;2023-02-01T14:50:26;101882.25;;;7.75;82.62
71970;BME280;59838;52.152;5.436;2023-02-01T15:03:58;101896.00;;;7.36;87.51
71970;BME280;59838;52.152;5.436;2023-02-01T15:06:32;101900.50;;;7.34;87.98
71970;BME280;59838;52.152;5.436;2023-02-01T15:09:09;101885.25;;;7.31;88.37
71970;BME280;59838;52.152;5.436;2023-02-01T15:14:26;101901.56;;;7.31;87.44
71970;BME280;59838;52.152;5.436;2023-02-01T15:16:52;101900.38;;;7.36;87.19
71970;BME280;59838;52.152;5.436;2023-02-01T15:19:24;101902.00;;;7.37;87.31
71970;BME280;59838;52.152;5.436;2023-02-01T15:21:53;101915.75;;;7.37;87.26
71970;BME280;59838;52.152;5.436;2023-02-01T15:24:27;101919.16;;;7.38;87.18
71970;BME280;59838;52.152;5.436;2023-02-01T15:26:55;101923.06;;;7.42;86.63
71970;BME280;59838;52.152;5.436;2023-02-01T15:29:23;101922.00;;;7.44;86.49
71970;BME280;59838;52.152;5.436;2023-02-01T15:31:54;101927.72;;;7.48;85.70
71970;BME280;59838;52.152;5.436;2023-02-01T15:34:44;101932.34;;;7.54;85.76
71970;BME280;59838;52.152;5.436;2023-02-01T15:37:15;101929.78;;;7.54;85.75